createdAt,value
2023-02-28T00:02:43.969Z,2.60
2023-02-28T00:05:33.666Z,2.60
2023-02-28T00:08:22.979Z,2.60
2023-02-28T00:11:14.695Z,2.60
2023-02-28T00:14:05.566Z,2.60
2023-02-28T00:16:54.859Z,2.70
2023-02-28T00:19:44.135Z,2.70
2023-02-28T00:22:33.664Z,2.60
2023-02-28T00:25:26.269Z,2.70
2023-02-28T00:28:15.570Z,2.70
2023-02-28T00:31:06.808Z,2.70
2023-02-28T00:33:56.187Z,2.70
2023-02-28T00:36:47.242Z,2.70
2023-02-28T00:39:38.230Z,2.70
2023-02-28T00:42:27.919Z,2.70
2023-02-28T00:45:17.555Z,2.70
2023-02-28T00:48:08.506Z,2.70
2023-02-28T00:50:57.823Z,2.70
2023-02-28T00:53:48.137Z,2.70
2023-02-28T00:56:40.195Z,2.70
2023-02-28T00:59:29.635Z,2.70
2023-02-28T01:02:20.876Z,2.80
2023-02-28T01:05:12.545Z,2.80
2023-02-28T01:08:01.883Z,2.80
2023-02-28T01:10:51.248Z,2.80
2023-02-28T01:13:40.757Z,2.90
2023-02-28T01:16:30.691Z,2.90
2023-02-28T01:19:20.318Z,2.90
2023-02-28T01:22:11.086Z,3.00
2023-02-28T01:25:00.420Z,2.90
2023-02-28T01:27:49.711Z,2.90
2023-02-28T01:30:39.160Z,2.90
2023-02-28T01:33:29.662Z,2.90
2023-02-28T01:36:21.128Z,2.90
2023-02-28T01:39:11.768Z,3.00
2023-02-28T01:42:01.072Z,2.90
2023-02-28T01:45:16.950Z,2.90
2023-02-28T01:48:09.925Z,2.80
2023-02-28T01:51:03.602Z,2.80
2023-02-28T01:53:59.809Z,2.80
2023-02-28T01:56:53.611Z,2.70
2023-02-28T01:59:49.641Z,2.70
2023-02-28T02:02:40.135Z,2.60
2023-02-28T02:05:33.009Z,2.60
2023-02-28T02:08:25.804Z,2.60
2023-02-28T02:11:20.324Z,2.60
2023-02-28T02:14:30.804Z,2.50
2023-02-28T02:17:31.500Z,2.50
2023-02-28T02:21:21.339Z,2.50
2023-02-28T02:24:59.809Z,2.50
2023-02-28T02:28:33.842Z,2.50
2023-02-28T02:32:01.321Z,2.40
2023-02-28T02:35:01.367Z,2.40
2023-02-28T02:37:59.280Z,2.40
2023-02-28T02:41:00.038Z,2.50
2023-02-28T02:43:53.750Z,2.40
2023-02-28T02:46:46.889Z,2.40
2023-02-28T02:49:39.017Z,2.40
2023-02-28T02:52:36.742Z,2.50
2023-02-28T02:55:28.174Z,2.50
2023-02-28T02:58:21.231Z,2.50
2023-02-28T03:01:15.790Z,2.50
2023-02-28T03:04:10.753Z,2.50
2023-02-28T03:07:01.365Z,2.40
2023-02-28T03:09:58.392Z,2.50
2023-02-28T03:13:22.322Z,2.40
2023-02-28T03:16:38.766Z,2.50
2023-02-28T03:19:47.614Z,2.40
2023-02-28T03:22:53.527Z,2.40
2023-02-28T03:25:58.740Z,2.40
2023-02-28T03:28:57.929Z,2.40
2023-02-28T03:31:52.598Z,2.40
2023-02-28T03:34:48.204Z,2.40
2023-02-28T03:37:41.963Z,2.40
2023-02-28T03:40:35.615Z,2.40
2023-02-28T03:43:35.793Z,2.30
2023-02-28T03:46:29.781Z,2.30
2023-02-28T03:49:23.019Z,2.30
2023-02-28T03:52:12.490Z,2.30
2023-02-28T03:55:10.149Z,2.30
2023-02-28T03:58:04.207Z,2.30
2023-02-28T04:01:08.576Z,2.30
2023-02-28T04:03:58.103Z,2.30
2023-02-28T04:06:47.829Z,2.20
2023-02-28T04:09:37.569Z,2.20
2023-02-28T04:12:26.995Z,2.20
2023-02-28T04:15:16.630Z,2.20
2023-02-28T04:18:08.126Z,2.20
2023-02-28T04:20:57.402Z,2.20
2023-02-28T04:23:46.723Z,2.10
2023-02-28T04:26:38.765Z,2.10
2023-02-28T04:29:30.337Z,2.10
2023-02-28T04:32:19.724Z,2.00
2023-02-28T04:35:12.445Z,2.00
2023-02-28T04:38:01.884Z,1.90
2023-02-28T04:40:51.159Z,1.90
2023-02-28T04:43:40.615Z,1.90
2023-02-28T04:46:30.103Z,1.90
2023-02-28T04:49:19.605Z,1.90
2023-02-28T04:52:11.380Z,1.90
2023-02-28T04:55:00.908Z,1.90
2023-02-28T04:57:50.227Z,1.90
2023-02-28T05:00:39.756Z,1.80
2023-02-28T05:03:29.057Z,1.90
2023-02-28T05:06:19.620Z,1.80
2023-02-28T05:09:13.268Z,1.90
2023-02-28T05:12:02.646Z,1.90
2023-02-28T05:14:52.041Z,1.90
2023-02-28T05:17:41.359Z,1.80
2023-02-28T05:20:30.933Z,1.80
2023-02-28T05:23:22.142Z,1.80
2023-02-28T05:26:12.836Z,1.70
2023-02-28T05:29:02.236Z,1.70
2023-02-28T05:31:51.947Z,1.70
2023-02-28T05:34:41.913Z,1.60
2023-02-28T05:37:31.270Z,1.60
2023-02-28T05:40:21.448Z,1.50
2023-02-28T05:43:14.040Z,1.40
2023-02-28T05:46:06.535Z,1.30
2023-02-28T05:48:57.072Z,1.30
2023-02-28T05:51:46.438Z,1.20
2023-02-28T05:54:36.079Z,1.20
2023-02-28T05:57:25.801Z,1.10
2023-02-28T06:00:18.869Z,1.00
2023-02-28T06:03:08.268Z,0.90
2023-02-28T06:05:58.093Z,0.90
2023-02-28T06:08:47.471Z,0.90
2023-02-28T06:11:36.882Z,0.80
2023-02-28T06:14:26.378Z,0.80
2023-02-28T06:17:17.167Z,0.70
2023-02-28T06:20:08.202Z,0.70
2023-02-28T06:22:59.540Z,0.70
2023-02-28T06:25:50.460Z,0.70
2023-02-28T06:28:39.819Z,0.80
2023-02-28T06:31:30.518Z,0.90
2023-02-28T06:34:21.481Z,1.20
2023-02-28T06:37:10.788Z,1.50
2023-02-28T06:40:00.685Z,1.90
2023-02-28T06:42:50.048Z,2.30
2023-02-28T06:45:39.352Z,2.70
2023-02-28T06:48:29.609Z,3.20
2023-02-28T06:51:23.299Z,3.60
2023-02-28T06:54:13.382Z,4.20
2023-02-28T06:57:02.726Z,4.70
2023-02-28T06:59:52.088Z,5.20
2023-02-28T07:02:41.397Z,5.70
2023-02-28T07:05:30.712Z,6.20
2023-02-28T07:08:21.584Z,6.80
2023-02-28T07:11:11.203Z,7.20
2023-02-28T07:14:00.587Z,7.70
2023-02-28T07:16:51.342Z,8.00
2023-02-28T07:19:40.906Z,8.30
2023-02-28T07:22:30.662Z,8.50
2023-02-28T07:25:21.364Z,8.80
2023-02-28T07:28:10.636Z,9.00
2023-02-28T07:31:05.651Z,9.30
2023-02-28T07:33:55.190Z,9.60
2023-02-28T07:36:44.474Z,9.80
2023-02-28T07:39:33.868Z,10.10
2023-02-28T07:42:24.578Z,10.40
2023-02-28T07:45:14.411Z,10.60
2023-02-28T07:48:04.112Z,10.80
2023-02-28T07:50:57.537Z,11.10
2023-02-28T07:53:47.001Z,11.50
2023-02-28T07:56:36.380Z,11.90
2023-02-28T07:59:27.494Z,12.30
2023-02-28T08:02:18.920Z,12.80
2023-02-28T08:05:09.567Z,13.30
2023-02-28T08:07:59.174Z,13.60
2023-02-28T08:10:48.495Z,13.70
2023-02-28T08:13:37.825Z,13.60
2023-02-28T08:16:28.660Z,13.40
2023-02-28T08:19:17.961Z,13.10
2023-02-28T08:22:07.414Z,12.70
2023-02-28T08:24:56.772Z,12.30
2023-02-28T08:27:46.580Z,11.90
2023-02-28T08:30:35.965Z,11.60
2023-02-28T08:33:29.453Z,11.60
2023-02-28T08:36:19.097Z,11.60
2023-02-28T08:39:08.868Z,11.90
2023-02-28T08:42:07.128Z,12.30
2023-02-28T08:44:57.527Z,12.70
2023-02-28T08:47:46.884Z,13.30
2023-02-28T08:50:37.585Z,13.80
2023-02-28T08:53:27.110Z,14.30
2023-02-28T08:56:19.734Z,14.50
2023-02-28T08:59:10.920Z,14.80
2023-02-28T09:02:00.300Z,15.00
2023-02-28T09:04:52.416Z,15.20
2023-02-28T09:07:43.315Z,15.30
2023-02-28T09:10:32.691Z,15.30
2023-02-28T09:13:22.873Z,15.30
2023-02-28T09:16:15.770Z,15.30
2023-02-28T09:19:05.263Z,15.20
2023-02-28T09:21:54.614Z,15.30
2023-02-28T09:24:46.126Z,15.30
2023-02-28T09:27:35.491Z,15.30
2023-02-28T09:30:25.083Z,15.40
2023-02-28T09:33:14.904Z,15.40
2023-02-28T09:36:06.110Z,15.40
2023-02-28T09:38:55.442Z,15.50
2023-02-28T09:41:51.591Z,15.50
2023-02-28T09:44:46.148Z,15.60
2023-02-28T09:47:39.000Z,15.70
2023-02-28T09:50:36.466Z,15.80
2023-02-28T09:53:34.863Z,15.90
2023-02-28T09:56:28.805Z,16.10
2023-02-28T09:59:34.808Z,16.20
2023-02-28T10:02:51.898Z,16.20
2023-02-28T10:05:45.676Z,16.20
2023-02-28T10:08:43.694Z,16.20
2023-02-28T10:11:36.427Z,16.20
2023-02-28T10:14:30.796Z,16.30
2023-02-28T10:17:24.547Z,16.30
2023-02-28T10:20:20.848Z,16.40
2023-02-28T10:23:20.001Z,16.60
2023-02-28T10:26:17.095Z,16.80
2023-02-28T10:29:06.461Z,17.00
2023-02-28T10:31:57.229Z,17.20
2023-02-28T10:34:46.813Z,17.30
2023-02-28T10:37:39.640Z,17.30
2023-02-28T10:40:36.566Z,17.20
2023-02-28T10:43:26.662Z,17.10
2023-02-28T10:46:26.998Z,17.00
2023-02-28T10:49:23.979Z,16.90
2023-02-28T10:52:13.409Z,16.70
2023-02-28T10:55:22.903Z,16.50
2023-02-28T10:58:24.655Z,16.30
2023-02-28T11:01:17.548Z,16.20
2023-02-28T11:04:22.969Z,16.20
2023-02-28T11:07:23.154Z,16.20
2023-02-28T11:10:24.993Z,16.20
2023-02-28T11:13:21.875Z,16.30
2023-02-28T11:16:14.920Z,16.30
2023-02-28T11:19:05.609Z,16.30
2023-02-28T11:22:01.146Z,16.20
2023-02-28T11:24:53.988Z,16.10
2023-02-28T11:27:50.569Z,15.90
2023-02-28T11:30:41.784Z,15.80
2023-02-28T11:33:33.845Z,15.60
2023-02-28T11:36:26.811Z,15.40
2023-02-28T11:39:19.749Z,15.20
2023-02-28T11:42:31.469Z,15.10
2023-02-28T11:45:46.436Z,14.90
2023-02-28T11:48:47.174Z,14.60
2023-02-28T11:51:51.910Z,14.30
2023-02-28T11:55:13.496Z,13.90
2023-02-28T11:58:19.319Z,13.50
2023-02-28T12:01:35.670Z,12.90
2023-02-28T12:04:38.391Z,12.30
2023-02-28T12:07:38.803Z,11.70
2023-02-28T12:10:31.704Z,11.10
2023-02-28T12:13:29.073Z,10.60
2023-02-28T12:16:52.832Z,10.10
2023-02-28T12:19:51.723Z,9.70
2023-02-28T12:22:49.500Z,9.30
2023-02-28T12:25:54.668Z,9.10
2023-02-28T12:28:48.847Z,8.90
2023-02-28T12:31:42.644Z,8.70
2023-02-28T12:34:38.771Z,8.60
2023-02-28T12:37:35.063Z,8.50
2023-02-28T12:40:28.268Z,8.30
2023-02-28T12:43:21.025Z,8.20
2023-02-28T12:46:17.325Z,8.10
2023-02-28T12:49:13.109Z,8.00
2023-02-28T12:52:04.280Z,8.00
2023-02-28T12:54:59.221Z,7.90
2023-02-28T12:57:55.839Z,7.80
2023-02-28T13:01:09.063Z,7.70
2023-02-28T13:04:46.651Z,7.70
2023-02-28T13:08:06.916Z,7.60
2023-02-28T13:10:56.869Z,7.60
2023-02-28T13:13:47.843Z,7.50
2023-02-28T13:17:01.225Z,7.50
2023-02-28T13:20:01.015Z,7.50
2023-02-28T13:22:53.619Z,7.40
2023-02-28T13:25:55.714Z,7.30
2023-02-28T13:29:30.400Z,7.20
2023-02-28T13:32:39.767Z,7.20
2023-02-28T13:35:46.204Z,7.10
2023-02-28T13:38:41.628Z,7.00
2023-02-28T13:41:49.600Z,6.90
2023-02-28T13:45:28.754Z,6.90
2023-02-28T13:48:22.895Z,6.90
2023-02-28T13:51:42.874Z,6.90
2023-02-28T13:54:48.188Z,7.00
2023-02-28T13:58:00.318Z,6.90
2023-02-28T14:01:15.381Z,6.90
2023-02-28T14:04:54.829Z,6.90
2023-02-28T14:07:49.278Z,7.00
2023-02-28T14:10:45.845Z,7.00
2023-02-28T14:13:47.971Z,7.00
2023-02-28T14:16:45.785Z,7.00
2023-02-28T14:19:39.836Z,7.00
2023-02-28T14:22:53.791Z,7.00
2023-02-28T14:25:53.914Z,6.90
2023-02-28T14:29:02.509Z,6.90
2023-02-28T14:32:00.729Z,6.90
2023-02-28T14:37:55.980Z,6.80
2023-02-28T14:40:45.488Z,6.80
2023-02-28T14:43:35.034Z,6.70
2023-02-28T14:46:29.198Z,6.70
2023-02-28T14:49:23.729Z,6.60
2023-02-28T14:52:22.168Z,6.60
2023-02-28T14:55:17.630Z,6.60
2023-02-28T14:58:08.994Z,6.50
2023-02-28T15:01:01.199Z,6.50
2023-02-28T15:03:59.460Z,6.50
2023-02-28T15:06:48.867Z,6.50
2023-02-28T15:09:40.168Z,6.50
2023-02-28T15:12:29.654Z,6.50
2023-02-28T15:15:25.318Z,6.50
2023-02-28T15:18:33.166Z,6.40
2023-02-28T15:21:25.790Z,6.40
2023-02-28T15:24:25.252Z,6.40
2023-02-28T15:27:23.074Z,6.40
2023-02-28T15:30:20.289Z,6.30
2023-02-28T15:33:22.562Z,6.30
2023-02-28T15:36:20.403Z,6.30
2023-02-28T15:39:23.432Z,6.20
2023-02-28T15:42:15.200Z,6.20
2023-02-28T15:45:05.265Z,6.10
2023-02-28T15:47:56.142Z,6.00
2023-02-28T15:50:45.763Z,6.00
2023-02-28T15:53:38.652Z,5.90
2023-02-28T15:56:30.440Z,5.90
2023-02-28T15:59:25.582Z,5.80
2023-02-28T16:02:20.826Z,5.70
2023-02-28T16:05:31.549Z,5.70
2023-02-28T16:08:20.969Z,5.60
2023-02-28T16:11:11.932Z,5.60
2023-02-28T16:14:01.341Z,5.50
2023-02-28T16:16:57.376Z,5.50
2023-02-28T16:19:46.684Z,5.40
2023-02-28T16:22:36.023Z,5.30
2023-02-28T16:25:36.090Z,5.30
2023-02-28T16:28:32.144Z,5.20
2023-02-28T16:31:21.996Z,5.20
2023-02-28T16:34:12.747Z,5.10
2023-02-28T16:37:02.112Z,5.10
2023-02-28T16:39:52.088Z,5.00
2023-02-28T16:42:42.721Z,5.00
2023-02-28T16:45:32.331Z,4.90
2023-02-28T16:48:21.643Z,4.90
2023-02-28T16:51:15.092Z,4.80
2023-02-28T16:54:04.806Z,4.80
2023-02-28T16:56:54.246Z,4.70
2023-02-28T16:59:43.710Z,4.70
2023-02-28T17:02:33.228Z,4.60
2023-02-28T17:05:23.706Z,4.50
2023-02-28T17:08:14.434Z,4.50
2023-02-28T17:11:03.900Z,4.50
2023-02-28T17:13:54.868Z,4.40
2023-02-28T17:16:45.118Z,4.30
2023-02-28T17:19:34.976Z,4.30
2023-02-28T17:22:24.286Z,4.30
2023-02-28T17:25:14.964Z,4.20
2023-02-28T17:28:04.423Z,4.20
2023-02-28T17:30:53.783Z,4.10
2023-02-28T17:33:43.218Z,4.10
2023-02-28T17:36:34.562Z,4.00
2023-02-28T17:39:25.303Z,4.00
2023-02-28T17:42:16.006Z,3.90
2023-02-28T17:45:06.189Z,3.80
2023-02-28T17:47:55.666Z,3.80
2023-02-28T17:50:45.057Z,3.80
2023-02-28T17:53:34.359Z,3.70
2023-02-28T17:56:25.564Z,3.70
2023-02-28T17:59:16.557Z,3.70
2023-02-28T18:02:06.032Z,3.60
2023-02-28T18:04:55.433Z,3.60
2023-02-28T18:07:44.993Z,3.60
2023-02-28T18:10:34.489Z,3.60
2023-02-28T18:13:23.806Z,3.60
2023-02-28T18:16:14.925Z,3.50
2023-02-28T18:19:04.538Z,3.50
2023-02-28T18:21:55.379Z,3.50
2023-02-28T18:24:44.752Z,3.50
2023-02-28T18:27:34.160Z,3.50
2023-02-28T18:30:24.031Z,3.40
2023-02-28T18:33:14.769Z,3.40
2023-02-28T18:36:04.240Z,3.30
2023-02-28T18:38:53.804Z,3.30
2023-02-28T18:41:43.282Z,3.30
2023-02-28T18:44:32.688Z,3.30
2023-02-28T18:47:21.988Z,3.20
2023-02-28T18:50:13.812Z,3.20
2023-02-28T18:53:03.448Z,3.20
2023-02-28T18:55:52.797Z,3.20
2023-02-28T18:58:43.028Z,3.10
2023-02-28T19:01:33.561Z,3.10
2023-02-28T19:04:23.093Z,3.10
2023-02-28T19:07:14.774Z,3.00
2023-02-28T19:10:04.265Z,3.00
2023-02-28T19:12:53.719Z,3.00
2023-02-28T19:15:43.033Z,3.00
2023-02-28T19:18:32.845Z,2.90
2023-02-28T19:21:24.824Z,2.90
2023-02-28T19:24:15.458Z,2.90
2023-02-28T19:27:04.823Z,2.90
2023-02-28T19:29:54.651Z,2.80
2023-02-28T19:32:43.965Z,2.80
2023-02-28T19:35:33.374Z,2.70
2023-02-28T19:38:23.149Z,2.70
2023-02-28T19:41:16.224Z,2.70
2023-02-28T19:44:05.852Z,2.70
2023-02-28T19:46:55.481Z,2.60
2023-02-28T19:49:44.851Z,2.60
2023-02-28T19:52:34.407Z,2.60
2023-02-28T19:55:24.152Z,2.50
2023-02-28T19:58:14.855Z,2.50
2023-02-28T20:01:10.190Z,2.50
2023-02-28T20:03:59.658Z,2.50
2023-02-28T20:06:49.045Z,2.40
2023-02-28T20:09:38.494Z,2.40
2023-02-28T20:12:27.964Z,2.40
2023-02-28T20:15:18.818Z,2.30
2023-02-28T20:18:08.102Z,2.30
2023-02-28T20:20:57.475Z,2.30
2023-02-28T20:23:48.678Z,2.20
2023-02-28T20:26:38.281Z,2.20
2023-02-28T20:29:27.632Z,2.20
2023-02-28T20:32:18.320Z,2.20
2023-02-28T20:35:11.623Z,2.30
2023-02-28T20:38:01.254Z,2.20
2023-02-28T20:40:50.633Z,2.20
2023-02-28T20:43:40.893Z,2.20
2023-02-28T20:46:32.050Z,2.20
2023-02-28T20:49:23.084Z,2.20
2023-02-28T20:52:12.490Z,2.20
2023-02-28T20:55:01.752Z,2.20
2023-02-28T20:57:51.065Z,2.10
2023-02-28T21:00:40.687Z,2.10
2023-02-28T21:03:30.340Z,2.10
2023-02-28T21:06:23.572Z,2.00
2023-02-28T21:09:15.197Z,2.00
2023-02-28T21:12:05.963Z,1.90
2023-02-28T21:14:55.233Z,1.90
2023-02-28T21:17:47.561Z,1.80
2023-02-28T21:20:36.869Z,1.80
2023-02-28T21:23:27.569Z,1.70
2023-02-28T21:26:20.170Z,1.70
2023-02-28T21:29:09.662Z,1.60
2023-02-28T21:31:59.459Z,1.50
2023-02-28T21:34:48.806Z,1.50
2023-02-28T21:37:39.443Z,1.40
2023-02-28T21:40:30.160Z,1.40
2023-02-28T21:43:19.517Z,1.30
2023-02-28T21:46:11.538Z,1.30
2023-02-28T21:49:00.889Z,1.30
2023-02-28T21:51:50.195Z,1.20
2023-02-28T21:54:39.582Z,1.20
2023-02-28T21:57:30.399Z,1.20
2023-02-28T22:00:21.509Z,1.10
2023-02-28T22:03:10.852Z,1.10
2023-02-28T22:06:00.234Z,1.00
2023-02-28T22:08:53.869Z,1.00
2023-02-28T22:11:43.237Z,1.00
2023-02-28T22:14:33.995Z,0.90
2023-02-28T22:17:23.309Z,0.90
2023-02-28T22:20:13.749Z,0.80
2023-02-28T22:23:03.049Z,0.80
2023-02-28T22:25:53.716Z,0.80
2023-02-28T22:28:43.405Z,0.70
2023-02-28T22:31:36.581Z,0.70
2023-02-28T22:34:26.004Z,0.70
2023-02-28T22:37:15.515Z,0.60
2023-02-28T22:40:05.645Z,0.60
2023-02-28T22:42:54.977Z,0.60
2023-02-28T22:45:44.300Z,0.50
2023-02-28T22:48:36.298Z,0.50
2023-02-28T22:51:27.062Z,0.40
2023-02-28T22:54:16.479Z,0.40
2023-02-28T22:57:05.802Z,0.30
2023-02-28T22:59:55.142Z,0.30
2023-02-28T23:02:45.229Z,0.20
2023-02-28T23:05:35.969Z,0.20
2023-02-28T23:08:25.348Z,0.20
2023-02-28T23:11:21.560Z,0.10
2023-02-28T23:14:12.856Z,0.10
2023-02-28T23:17:02.171Z,0.10
2023-02-28T23:19:51.570Z,0.10
2023-02-28T23:22:50.667Z,0.10
2023-02-28T23:25:41.994Z,0.10
2023-02-28T23:28:31.380Z,0.10
2023-02-28T23:31:21.193Z,0.00
2023-02-28T23:34:11.195Z,0.00
2023-02-28T23:37:02.889Z,0.00
2023-02-28T23:39:53.850Z,0.00
2023-02-28T23:42:44.600Z,-0.10
2023-02-28T23:45:33.942Z,0.00
2023-02-28T23:48:23.334Z,-0.10
2023-02-28T23:51:16.846Z,-0.10
2023-02-28T23:54:06.783Z,-0.10
2023-02-28T23:56:57.488Z,-0.20
2023-02-28T23:59:47.039Z,-0.20
